createdAt,value
2018-08-03T00:01:23.833Z,9.55
2018-08-03T00:03:52.109Z,5.53
2018-08-03T00:06:20.371Z,12.47
2018-08-03T00:08:48.658Z,6.55
2018-08-03T00:11:16.913Z,9.08
2018-08-03T00:13:45.245Z,8.63
2018-08-03T00:16:13.566Z,7.95
2018-08-03T00:18:41.800Z,6.75
2018-08-03T00:21:10.095Z,5.15
2018-08-03T00:23:38.348Z,7.83
2018-08-03T00:26:06.658Z,8.28
2018-08-03T00:28:34.907Z,6.03
2018-08-03T00:31:03.165Z,6.37
2018-08-03T00:33:31.452Z,7.50
2018-08-03T00:35:59.750Z,10.20
2018-08-03T00:38:28.038Z,8.95
2018-08-03T00:40:56.406Z,7.92
2018-08-03T00:43:25.201Z,9.10
2018-08-03T00:45:53.500Z,5.53
2018-08-03T00:48:29.542Z,7.78
2018-08-03T00:50:57.892Z,7.08
2018-08-03T00:53:26.169Z,7.33
2018-08-03T00:55:54.467Z,4.85
2018-08-03T00:58:22.959Z,5.83
2018-08-03T01:00:51.230Z,8.50
2018-08-03T01:03:19.498Z,5.33
2018-08-03T01:05:47.806Z,12.70
2018-08-03T01:08:16.112Z,7.55
2018-08-03T01:10:44.343Z,7.15
2018-08-03T01:13:13.255Z,13.35
2018-08-03T01:15:41.529Z,10.13
2018-08-03T01:18:09.857Z,10.95
2018-08-03T01:20:38.118Z,9.70
2018-08-03T01:23:06.366Z,13.85
2018-08-03T01:25:34.634Z,9.85
2018-08-03T01:28:02.878Z,10.43
2018-08-03T01:30:31.205Z,8.28
2018-08-03T01:32:59.490Z,8.25
2018-08-03T01:35:28.169Z,9.88
2018-08-03T01:37:56.444Z,9.35
2018-08-03T01:40:24.778Z,12.58
2018-08-03T01:42:53.042Z,7.45
2018-08-03T01:45:21.331Z,8.73
2018-08-03T01:47:49.688Z,9.28
2018-08-03T01:50:17.987Z,12.33
2018-08-03T01:52:46.333Z,9.60
2018-08-03T01:55:14.590Z,9.55
2018-08-03T01:57:42.834Z,10.88
2018-08-03T02:00:12.127Z,9.95
2018-08-03T02:02:40.470Z,8.78
2018-08-03T02:05:08.718Z,11.28
2018-08-03T02:07:36.963Z,11.18
2018-08-03T02:10:05.263Z,11.05
2018-08-03T02:12:33.507Z,11.35
2018-08-03T02:15:02.081Z,7.30
2018-08-03T02:17:30.334Z,9.08
2018-08-03T02:19:58.590Z,10.23
2018-08-03T02:22:26.868Z,11.63
2018-08-03T02:24:55.125Z,8.88
2018-08-03T02:27:24.349Z,8.83
2018-08-03T02:29:52.595Z,8.28
2018-08-03T02:32:20.852Z,11.22
2018-08-03T02:34:49.151Z,9.50
2018-08-03T02:37:17.420Z,8.88
2018-08-03T02:39:45.764Z,10.20
2018-08-03T02:42:14.082Z,11.55
2018-08-03T02:44:42.315Z,15.53
2018-08-03T02:47:11.225Z,13.10
2018-08-03T02:49:39.501Z,13.78
2018-08-03T02:52:08.010Z,12.93
2018-08-03T02:54:36.283Z,16.55
2018-08-03T02:57:04.753Z,16.07
2018-08-03T02:59:33.028Z,13.03
2018-08-03T03:02:01.293Z,18.82
2018-08-03T03:04:29.611Z,14.85
2018-08-03T03:06:57.927Z,12.13
2018-08-03T03:09:26.200Z,12.93
2018-08-03T03:11:54.459Z,19.45
2018-08-03T03:14:22.818Z,17.77
2018-08-03T03:16:51.699Z,8.03
2018-08-03T03:19:19.995Z,13.88
2018-08-03T03:21:48.231Z,14.00
2018-08-03T03:24:16.506Z,15.30
2018-08-03T03:26:45.341Z,16.25
2018-08-03T03:29:13.617Z,19.07
2018-08-03T03:31:41.883Z,17.42
2018-08-03T03:34:10.166Z,16.27
2018-08-03T03:36:38.397Z,17.30
2018-08-03T03:39:09.870Z,20.45
2018-08-03T03:41:38.124Z,21.12
2018-08-03T03:44:06.424Z,20.43
2018-08-03T03:46:35.099Z,15.78
2018-08-03T03:49:03.409Z,16.65
2018-08-03T03:51:31.756Z,19.48
2018-08-03T03:54:00.334Z,14.70
2018-08-03T03:56:28.641Z,18.92
2018-08-03T03:58:56.929Z,12.58
2018-08-03T04:01:25.203Z,15.28
2018-08-03T04:03:53.592Z,15.20
2018-08-03T04:06:21.865Z,16.48
2018-08-03T04:08:50.124Z,14.55
2018-08-03T04:11:18.407Z,13.60
2018-08-03T04:13:46.841Z,17.25
2018-08-03T04:16:15.129Z,12.25
2018-08-03T04:18:43.420Z,12.95
2018-08-03T04:21:11.675Z,11.88
2018-08-03T04:23:39.929Z,11.93
2018-08-03T04:26:08.209Z,13.20
2018-08-03T04:28:36.462Z,16.75
2018-08-03T04:31:04.744Z,12.98
2018-08-03T04:33:33.270Z,13.50
2018-08-03T04:36:01.875Z,16.62
2018-08-03T04:38:30.167Z,13.50
2018-08-03T04:40:58.442Z,16.97
2018-08-03T04:43:26.720Z,16.35
2018-08-03T04:45:55.019Z,13.30
2018-08-03T04:48:23.274Z,18.42
2018-08-03T04:50:51.556Z,15.60
2018-08-03T04:53:19.817Z,21.93
2018-08-03T04:55:48.071Z,18.30
2018-08-03T04:58:16.480Z,18.27
2018-08-03T05:00:44.777Z,16.77
2018-08-03T05:03:13.028Z,13.48
2018-08-03T05:05:41.283Z,16.40
2018-08-03T05:08:09.572Z,11.93
2018-08-03T05:10:37.817Z,13.48
2018-08-03T05:13:06.114Z,16.52
2018-08-03T05:15:34.426Z,20.10
2018-08-03T05:18:02.446Z,17.32
2018-08-03T05:20:30.709Z,14.87
2018-08-03T05:22:58.942Z,11.97
2018-08-03T05:25:27.186Z,18.27
2018-08-03T05:27:55.427Z,12.63
2018-08-03T05:30:23.751Z,14.90
2018-08-03T05:32:52.000Z,24.25
2018-08-03T05:35:20.327Z,15.58
2018-08-03T05:37:48.539Z,18.95
2018-08-03T05:40:16.850Z,16.55
2018-08-03T05:42:45.078Z,18.80
2018-08-03T05:45:13.437Z,15.65
2018-08-03T05:47:41.713Z,20.92
2018-08-03T05:50:10.027Z,16.02
2018-08-03T05:52:38.257Z,16.97
2018-08-03T05:55:06.526Z,28.35
2018-08-03T05:57:34.791Z,20.57
2018-08-03T06:00:03.138Z,16.23
2018-08-03T06:02:31.596Z,16.62
2018-08-03T06:04:59.869Z,17.95
2018-08-03T06:07:29.007Z,18.12
2018-08-03T06:09:58.247Z,24.37
2018-08-03T06:12:26.508Z,20.40
2018-08-03T06:14:55.016Z,17.57
2018-08-03T06:17:23.274Z,16.00
2018-08-03T06:19:51.614Z,16.55
2018-08-03T06:22:20.896Z,15.93
2018-08-03T06:24:49.376Z,21.73
2018-08-03T06:27:17.637Z,12.50
2018-08-03T06:29:46.026Z,11.93
2018-08-03T06:32:14.466Z,14.20
2018-08-03T06:34:42.864Z,15.50
2018-08-03T06:37:11.154Z,12.73
2018-08-03T06:39:39.437Z,11.33
2018-08-03T06:42:07.755Z,9.93
2018-08-03T06:44:36.141Z,12.03
2018-08-03T06:47:04.416Z,11.08
2018-08-03T06:49:32.730Z,9.90
2018-08-03T06:52:01.005Z,9.68
2018-08-03T06:54:29.312Z,11.38
2018-08-03T06:56:57.556Z,7.87
2018-08-03T06:59:25.805Z,13.80
2018-08-03T07:01:54.269Z,8.10
2018-08-03T07:04:22.644Z,9.33
2018-08-03T07:06:51.123Z,10.63
2018-08-03T07:09:19.389Z,11.85
2018-08-03T07:11:47.707Z,8.50
2018-08-03T07:14:16.103Z,11.90
2018-08-03T07:16:44.330Z,11.22
2018-08-03T07:19:13.571Z,10.78
2018-08-03T07:21:41.885Z,10.68
2018-08-03T07:24:10.253Z,8.08
2018-08-03T07:26:38.559Z,8.93
2018-08-03T07:29:06.840Z,10.68
2018-08-03T07:31:35.128Z,9.63
2018-08-03T07:34:03.582Z,10.08
2018-08-03T07:36:31.887Z,9.20
2018-08-03T07:39:00.153Z,11.57
2018-08-03T07:41:29.191Z,9.60
2018-08-03T07:43:57.495Z,9.83
2018-08-03T07:46:25.777Z,9.00
2018-08-03T07:48:54.623Z,10.38
2018-08-03T07:51:22.945Z,9.68
2018-08-03T07:53:51.260Z,13.62
2018-08-03T07:56:19.535Z,7.45
2018-08-03T07:58:47.852Z,10.43
2018-08-03T08:01:16.111Z,7.87
2018-08-03T08:03:44.386Z,12.37
2018-08-03T08:06:12.699Z,9.98
2018-08-03T08:08:40.998Z,8.23
2018-08-03T08:11:09.260Z,7.17
2018-08-03T08:13:37.568Z,6.72
2018-08-03T08:16:07.479Z,10.20
2018-08-03T08:18:43.068Z,8.80
2018-08-03T08:21:11.400Z,8.35
2018-08-03T08:23:39.690Z,9.93
2018-08-03T08:26:08.459Z,6.60
2018-08-03T08:28:36.725Z,10.55
2018-08-03T08:31:04.975Z,7.05
2018-08-03T08:33:33.261Z,9.05
2018-08-03T08:36:01.541Z,10.10
2018-08-03T08:38:29.806Z,6.80
2018-08-03T08:40:59.102Z,9.28
2018-08-03T08:43:27.457Z,8.63
2018-08-03T08:45:55.824Z,7.35
2018-08-03T08:48:24.170Z,7.55
2018-08-03T08:50:52.243Z,5.87
2018-08-03T08:53:20.568Z,6.92
2018-08-03T08:55:48.812Z,7.53
2018-08-03T08:58:17.065Z,7.85
2018-08-03T09:00:45.358Z,4.62
2018-08-03T09:03:13.824Z,6.60
2018-08-03T09:05:42.106Z,4.15
2018-08-03T09:08:10.353Z,5.83
2018-08-03T09:10:38.687Z,5.10
2018-08-03T09:13:07.190Z,13.72
2018-08-03T09:15:35.463Z,4.97
2018-08-03T09:18:03.778Z,7.87
2018-08-03T09:20:32.045Z,7.80
2018-08-03T09:23:00.374Z,7.60
2018-08-03T09:25:28.633Z,9.38
2018-08-03T09:27:56.914Z,6.83
2018-08-03T09:30:25.189Z,6.22
2018-08-03T09:32:53.443Z,4.97
2018-08-03T09:35:21.753Z,5.92
2018-08-03T09:37:50.922Z,5.65
2018-08-03T09:40:18.964Z,5.95
2018-08-03T09:42:47.679Z,5.28
2018-08-03T09:45:15.722Z,4.33
2018-08-03T09:47:43.969Z,3.85
2018-08-03T09:50:12.345Z,4.15
2018-08-03T09:52:40.572Z,4.62
2018-08-03T09:55:08.823Z,7.03
2018-08-03T09:57:37.107Z,4.53
2018-08-03T10:00:05.722Z,4.65
2018-08-03T10:02:33.991Z,4.75
2018-08-03T10:05:02.295Z,4.70
2018-08-03T10:07:30.577Z,4.87
2018-08-03T10:09:58.839Z,5.40
2018-08-03T10:12:27.128Z,6.42
2018-08-03T10:14:55.442Z,7.40
2018-08-03T10:17:23.791Z,5.55
2018-08-03T10:19:52.413Z,10.45
2018-08-03T10:22:20.732Z,4.72
2018-08-03T10:24:48.968Z,4.28
2018-08-03T10:27:17.225Z,3.83
2018-08-03T10:29:45.501Z,3.95
2018-08-03T10:32:13.790Z,6.15
2018-08-03T10:34:42.077Z,5.87
2018-08-03T10:37:10.333Z,4.90
2018-08-03T10:39:39.754Z,4.92
2018-08-03T10:42:08.049Z,5.53
2018-08-03T10:44:36.311Z,5.15
2018-08-03T10:47:04.701Z,4.65
2018-08-03T10:49:32.992Z,5.70
2018-08-03T10:52:01.258Z,5.20
2018-08-03T10:54:29.655Z,5.45
2018-08-03T10:56:57.889Z,8.28
2018-08-03T10:59:26.223Z,6.33
2018-08-03T11:01:54.529Z,8.25
2018-08-03T11:04:23.003Z,5.17
2018-08-03T11:06:51.554Z,7.20
2018-08-03T11:09:19.770Z,3.92
2018-08-03T11:11:48.520Z,4.70
2018-08-03T11:14:16.884Z,11.70
2018-08-03T11:16:45.239Z,10.82
2018-08-03T11:19:13.577Z,6.00
2018-08-03T11:21:41.848Z,5.50
2018-08-03T11:24:10.238Z,6.30
2018-08-03T11:26:38.458Z,6.25
2018-08-03T11:29:06.706Z,4.72
2018-08-03T11:31:35.002Z,4.17
2018-08-03T11:34:03.284Z,8.50
2018-08-03T11:36:31.549Z,5.08
2018-08-03T11:38:59.865Z,3.75
2018-08-03T11:41:28.130Z,4.00
2018-08-03T11:43:56.397Z,3.92
2018-08-03T11:46:24.647Z,5.15
2018-08-03T11:48:53.225Z,5.60
2018-08-03T11:51:21.484Z,5.60
2018-08-03T11:53:49.767Z,4.95
2018-08-03T11:56:18.357Z,2.27
2018-08-03T11:58:46.614Z,6.50
2018-08-03T12:01:14.971Z,1.95
2018-08-03T12:03:43.214Z,3.80
2018-08-03T12:06:11.553Z,4.00
2018-08-03T12:08:39.837Z,4.95
2018-08-03T12:11:08.203Z,4.00
2018-08-03T12:13:36.702Z,4.65
2018-08-03T12:16:06.357Z,4.72
2018-08-03T12:18:34.622Z,4.05
2018-08-03T12:21:02.913Z,4.37
2018-08-03T12:23:31.228Z,2.00
2018-08-03T12:25:59.457Z,4.92
2018-08-03T12:28:27.738Z,3.62
2018-08-03T12:30:55.997Z,5.15
2018-08-03T12:33:24.295Z,3.05
2018-08-03T12:35:52.688Z,1.22
2018-08-03T12:38:20.982Z,1.60
2018-08-03T12:40:49.273Z,2.45
2018-08-03T12:43:17.688Z,1.75
2018-08-03T12:45:45.951Z,3.35
2018-08-03T12:48:14.241Z,1.35
2018-08-03T12:50:42.590Z,2.92
2018-08-03T12:53:10.928Z,2.37
2018-08-03T12:55:39.216Z,5.60
2018-08-03T12:58:07.486Z,2.27
2018-08-03T13:00:35.773Z,1.70
2018-08-03T13:03:04.109Z,2.98
2018-08-03T13:05:32.440Z,3.33
2018-08-03T13:08:00.846Z,3.05
2018-08-03T13:10:29.062Z,2.15
2018-08-03T13:12:57.374Z,2.58
2018-08-03T13:15:25.690Z,1.87
2018-08-03T13:17:53.999Z,1.45
2018-08-03T13:20:22.280Z,5.67
2018-08-03T13:22:51.963Z,6.15
2018-08-03T13:25:20.197Z,3.05
2018-08-03T13:27:48.507Z,1.40
2018-08-03T13:30:16.828Z,3.10
2018-08-03T13:32:45.083Z,2.27
2018-08-03T13:35:13.458Z,2.90
2018-08-03T13:37:41.783Z,3.35
2018-08-03T13:40:10.110Z,2.80
2018-08-03T13:42:38.423Z,6.05
2018-08-03T13:45:06.693Z,3.12
2018-08-03T13:47:34.720Z,4.12
2018-08-03T13:50:03.101Z,6.15
2018-08-03T13:52:31.338Z,3.70
2018-08-03T13:54:59.602Z,7.35
2018-08-03T13:57:27.931Z,1.60
2018-08-03T13:59:56.225Z,3.20
2018-08-03T14:02:27.059Z,6.90
2018-08-03T14:04:55.889Z,4.17
2018-08-03T14:07:25.960Z,7.78
2018-08-03T14:09:55.181Z,4.92
2018-08-03T14:12:23.513Z,6.65
2018-08-03T14:14:51.856Z,4.83
2018-08-03T14:17:20.152Z,3.35
2018-08-03T14:19:48.454Z,2.42
2018-08-03T14:22:16.856Z,3.83
2018-08-03T14:24:45.046Z,7.78
2018-08-03T14:27:13.351Z,8.53
2018-08-03T14:29:42.437Z,6.55
2018-08-03T14:32:10.755Z,9.88
2018-08-03T14:34:39.026Z,7.15
2018-08-03T14:37:07.312Z,6.92
2018-08-03T14:39:35.746Z,6.33
2018-08-03T14:42:04.006Z,6.92
2018-08-03T14:44:32.870Z,7.55
2018-08-03T14:47:01.117Z,6.37
2018-08-03T14:49:29.486Z,11.93
2018-08-03T14:51:57.774Z,6.12
2018-08-03T14:54:26.812Z,6.08
2018-08-03T14:56:55.259Z,10.80
2018-08-03T14:59:23.631Z,7.70
2018-08-03T15:01:51.886Z,7.85
2018-08-03T15:04:20.181Z,6.42
2018-08-03T15:06:48.503Z,7.08
2018-08-03T15:09:16.782Z,8.13
2018-08-03T15:11:45.144Z,6.33
2018-08-03T15:14:13.991Z,5.95
2018-08-03T15:16:42.395Z,5.12
2018-08-03T15:19:11.955Z,10.75
2018-08-03T15:21:40.394Z,3.15
2018-08-03T15:24:08.660Z,4.97
2018-08-03T15:26:37.013Z,3.80
2018-08-03T15:29:05.998Z,8.33
2018-08-03T15:31:34.244Z,6.40
2018-08-03T15:34:02.494Z,5.58
2018-08-03T15:36:30.831Z,7.80
2018-08-03T15:38:59.112Z,4.20
2018-08-03T15:41:27.404Z,5.37
2018-08-03T15:43:55.701Z,5.85
2018-08-03T15:46:24.067Z,6.12
2018-08-03T15:48:52.546Z,3.40
2018-08-03T15:51:20.812Z,3.70
2018-08-03T15:53:49.098Z,5.67
2018-08-03T15:56:17.391Z,4.47
2018-08-03T15:58:45.853Z,5.17
2018-08-03T16:01:14.217Z,4.65
2018-08-03T16:03:42.623Z,6.00
2018-08-03T16:06:12.157Z,4.72
2018-08-03T16:08:40.534Z,4.90
2018-08-03T16:11:08.838Z,4.67
2018-08-03T16:13:37.112Z,5.47
2018-08-03T16:16:05.364Z,3.77
2018-08-03T16:18:33.632Z,6.35
2018-08-03T16:21:02.005Z,3.45
2018-08-03T16:23:30.328Z,2.87
2018-08-03T16:25:58.580Z,1.80
2018-08-03T16:28:27.181Z,5.28
2018-08-03T16:30:55.794Z,3.25
2018-08-03T16:33:24.022Z,2.62
2018-08-03T16:35:52.289Z,5.75
2018-08-03T16:38:20.549Z,2.85
2018-08-03T16:40:48.805Z,2.98
2018-08-03T16:43:17.123Z,5.40
2018-08-03T16:45:45.373Z,2.95
2018-08-03T16:48:13.672Z,1.80
2018-08-03T16:50:41.980Z,5.10
2018-08-03T16:53:10.273Z,1.57
2018-08-03T16:55:38.521Z,3.75
2018-08-03T16:58:06.821Z,4.30
2018-08-03T17:00:35.089Z,1.57
2018-08-03T17:03:03.350Z,4.55
2018-08-03T17:05:31.609Z,2.58
2018-08-03T17:07:59.846Z,2.12
2018-08-03T17:10:28.152Z,3.33
2018-08-03T17:12:56.428Z,6.17
2018-08-03T17:15:24.677Z,2.22
2018-08-03T17:17:52.912Z,3.70
2018-08-03T17:20:21.257Z,3.92
2018-08-03T17:22:49.570Z,2.90
2018-08-03T17:25:17.874Z,4.40
2018-08-03T17:27:46.154Z,5.47
2018-08-03T17:30:15.450Z,4.55
2018-08-03T17:32:43.701Z,3.08
2018-08-03T17:35:12.577Z,2.08
2018-08-03T17:37:40.854Z,3.42
2018-08-03T17:40:09.108Z,2.50
2018-08-03T17:42:37.443Z,4.70
2018-08-03T17:45:05.746Z,2.35
2018-08-03T17:47:34.102Z,2.92
2018-08-03T17:50:02.397Z,1.52
2018-08-03T17:52:30.649Z,1.17
2018-08-03T17:54:58.947Z,3.45
2018-08-03T17:57:27.154Z,2.50
2018-08-03T17:59:55.475Z,4.47
2018-08-03T18:02:23.777Z,3.50
2018-08-03T18:04:51.856Z,3.17
2018-08-03T18:07:20.107Z,1.50
2018-08-03T18:09:48.457Z,1.40
2018-08-03T18:12:17.721Z,1.02
2018-08-03T18:14:46.331Z,2.42
2018-08-03T18:17:14.599Z,1.85
2018-08-03T18:19:42.859Z,1.50
2018-08-03T18:22:11.208Z,1.37
2018-08-03T18:24:39.471Z,1.62
2018-08-03T18:27:07.970Z,2.35
2018-08-03T18:29:36.221Z,3.00
2018-08-03T18:32:04.500Z,2.05
2018-08-03T18:34:32.825Z,7.05
2018-08-03T18:37:01.077Z,2.72
2018-08-03T18:39:29.328Z,1.45
2018-08-03T18:41:57.632Z,1.80
2018-08-03T18:44:25.877Z,1.67
2018-08-03T18:46:54.137Z,2.47
2018-08-03T18:49:22.445Z,6.08
2018-08-03T18:51:50.707Z,5.00
2018-08-03T18:54:18.968Z,2.98
2018-08-03T18:56:47.218Z,3.12
2018-08-03T18:59:15.691Z,1.95
2018-08-03T19:01:43.940Z,4.83
2018-08-03T19:04:12.315Z,4.60
2018-08-03T19:06:40.684Z,2.15
2018-08-03T19:09:09.096Z,4.42
2018-08-03T19:11:37.566Z,2.75
2018-08-03T19:14:05.864Z,1.57
2018-08-03T19:16:34.137Z,2.60
2018-08-03T19:19:02.741Z,1.50
2018-08-03T19:21:31.025Z,1.85
2018-08-03T19:23:59.313Z,2.70
2018-08-03T19:26:27.587Z,1.70
2018-08-03T19:28:55.863Z,1.95
2018-08-03T19:31:24.232Z,2.60
2018-08-03T19:33:52.579Z,3.15
2018-08-03T19:36:20.835Z,5.33
2018-08-03T19:38:49.118Z,3.17
2018-08-03T19:41:17.401Z,3.00
2018-08-03T19:43:45.665Z,4.00
2018-08-03T19:46:13.928Z,2.67
2018-08-03T19:48:42.210Z,6.97
2018-08-03T19:51:10.464Z,1.82
2018-08-03T19:53:38.799Z,5.08
2018-08-03T19:56:07.077Z,3.52
2018-08-03T19:58:35.403Z,2.05
2018-08-03T20:01:03.665Z,2.12
2018-08-03T20:03:32.051Z,2.37
2018-08-03T20:06:00.348Z,2.02
2018-08-03T20:08:28.678Z,2.02
2018-08-03T20:10:56.969Z,1.62
2018-08-03T20:13:25.407Z,2.25
2018-08-03T20:15:53.671Z,3.70
2018-08-03T20:18:21.956Z,2.00
2018-08-03T20:20:50.297Z,2.47
2018-08-03T20:23:18.518Z,2.92
2018-08-03T20:25:46.810Z,2.40
2018-08-03T20:28:15.123Z,2.45
2018-08-03T20:30:43.495Z,2.45
2018-08-03T20:33:11.733Z,3.60
2018-08-03T20:35:40.031Z,2.90
2018-08-03T20:38:08.312Z,3.72
2018-08-03T20:40:36.674Z,3.15
2018-08-03T20:43:05.256Z,1.87
2018-08-03T20:45:33.486Z,3.70
2018-08-03T20:48:01.792Z,2.83
2018-08-03T20:50:30.069Z,3.65
2018-08-03T20:52:58.337Z,2.27
2018-08-03T20:55:26.700Z,2.42
2018-08-03T20:57:54.926Z,3.75
2018-08-03T21:00:23.222Z,2.85
2018-08-03T21:02:51.481Z,3.75
2018-08-03T21:05:19.789Z,3.95
2018-08-03T21:07:48.081Z,3.02
2018-08-03T21:10:16.387Z,2.90
2018-08-03T21:12:44.642Z,3.58
2018-08-03T21:15:13.044Z,3.80
2018-08-03T21:17:42.012Z,3.98
2018-08-03T21:20:11.402Z,4.35
2018-08-03T21:22:39.728Z,3.45
2018-08-03T21:25:09.009Z,3.00
2018-08-03T21:27:37.353Z,5.95
2018-08-03T21:30:07.857Z,3.77
2018-08-03T21:32:36.145Z,5.25
2018-08-03T21:35:04.862Z,2.27
2018-08-03T21:37:33.225Z,2.50
2018-08-03T21:40:01.441Z,2.65
2018-08-03T21:42:29.702Z,10.98
2018-08-03T21:44:57.996Z,3.83
2018-08-03T21:47:26.299Z,6.50
2018-08-03T21:49:54.631Z,3.98
2018-08-03T21:52:22.897Z,3.45
2018-08-03T21:54:51.522Z,3.33
2018-08-03T21:57:19.784Z,6.35
2018-08-03T21:59:48.056Z,3.62
2018-08-03T22:02:16.369Z,5.55
2018-08-03T22:04:44.650Z,5.67
2018-08-03T22:07:13.019Z,2.70
2018-08-03T22:09:41.329Z,5.25
2018-08-03T22:12:09.681Z,3.65
2018-08-03T22:14:38.098Z,5.00
2018-08-03T22:17:06.395Z,3.33
2018-08-03T22:19:34.878Z,3.12
2018-08-03T22:22:03.165Z,4.28
2018-08-03T22:24:31.481Z,4.17
2018-08-03T22:26:59.759Z,5.10
2018-08-03T22:29:28.047Z,3.62
2018-08-03T22:31:56.326Z,3.35
2018-08-03T22:34:24.591Z,3.42
2018-08-03T22:36:52.839Z,3.33
2018-08-03T22:39:21.151Z,4.75
2018-08-03T22:41:49.423Z,5.30
2018-08-03T22:44:17.701Z,2.90
2018-08-03T22:46:45.947Z,3.62
2018-08-03T22:49:14.236Z,2.95
2018-08-03T22:51:42.209Z,3.50
2018-08-03T22:54:11.083Z,4.65
2018-08-03T22:56:39.326Z,4.30
2018-08-03T22:59:07.613Z,5.17
2018-08-03T23:01:35.857Z,4.97
2018-08-03T23:04:04.139Z,4.58
2018-08-03T23:06:32.384Z,6.67
2018-08-03T23:09:00.837Z,4.37
2018-08-03T23:11:29.074Z,4.70
2018-08-03T23:13:57.406Z,5.33
2018-08-03T23:16:25.625Z,4.40
2018-08-03T23:18:53.916Z,3.65
2018-08-03T23:21:22.368Z,3.83
2018-08-03T23:23:50.668Z,4.15
2018-08-03T23:26:18.893Z,3.85
2018-08-03T23:28:47.161Z,3.55
2018-08-03T23:31:15.468Z,5.83
2018-08-03T23:33:43.711Z,6.03
2018-08-03T23:36:12.895Z,4.08
2018-08-03T23:38:41.191Z,6.10
2018-08-03T23:41:09.446Z,3.40
2018-08-03T23:43:37.700Z,4.30
2018-08-03T23:46:06.043Z,12.65
2018-08-03T23:48:34.293Z,5.08
2018-08-03T23:51:02.559Z,5.37
2018-08-03T23:53:31.699Z,3.27
2018-08-03T23:55:59.948Z,3.90
2018-08-03T23:58:28.251Z,6.17
